Senryumaru — JD2014 — position and weather

sailwx.info

Track history (hours):
 
Tides and Currents Weather Stations Pressure Air Temp Water Temp Dewpoint Dewpoint Depression Visibility Wind Speed Wind Dir Waves Ship Positions

Senryumaru

Last reported at 2017-Aug-26 11:34 UTC. Time now 2017-Sep-21 03:05 UTC.
Position N 34°06' E 134°55'.
Warning: this ship's position is 25 days out of date.

Length 62 m; draft 4 m.

Type: Tanker. MMSI: 431401993.

Date/timePositionNaut miles runAvg speedWind from/ knotsBaromVisibWave heightAir tempDewpointWater temp
2017-Aug-26 11:34N 34°06' E 134°55'211.4
2017-Aug-26 11:23N 34°08' E 134°56'512.0
2017-Aug-26 11:00N 34°12' E 134°57'1111.8
2017-Aug-26 10:07N 34°22' E 135°01'111.6
2017-Aug-26 10:00N 34°23' E 135°02'611.9
2017-Aug-26 09:28N 34°26' E 135°09'612.0
2017-Aug-26 09:01N 34°29' E 135°14'611.9
2017-Aug-26 08:31N 34°33' E 135°20'4 0.5
2017-Aug-26 00:12N 34°33' E 135°25'1 5.8
2017-Aug-26 00:00N 34°33' E 135°24'1 0.5
2017-Aug-25 21:58N 34°34' E 135°23'0 0.1
2017-Aug-25 21:28N 34°34' E 135°23'0 0.0
2017-Aug-25 20:58N 34°34' E 135°23'0 0.0
2017-Aug-25 20:28N 34°34' E 135°23'0 0.0
2017-Aug-25 19:58N 34°34' E 135°23'0 0.0
2017-Aug-25 19:10N 34°34' E 135°23'0 0.0
2017-Aug-25 18:58N 34°34' E 135°23'0 0.0
2017-Aug-25 18:28N 34°34' E 135°23'0 0.0
2017-Aug-25 17:58N 34°34' E 135°23'0 0.0
2017-Aug-25 17:28N 34°34' E 135°23'0 0.0
2017-Aug-25 16:52N 34°34' E 135°23'0 0.0
2017-Aug-25 16:28N 34°34' E 135°23'0 0.0
2017-Aug-25 15:58N 34°34' E 135°23'0 0.0
2017-Aug-25 15:28N 34°34' E 135°23'0 0.0
2017-Aug-25 14:52N 34°34' E 135°23'0 0.0
2017-Aug-25 14:28N 34°34' E 135°23'0 0.0
2017-Aug-25 13:22N 34°34' E 135°23'0 0.0
2017-Aug-25 12:58N 34°34' E 135°23'0 0.0
2017-Aug-25 12:28N 34°34' E 135°23'0 0.0
2017-Aug-25 11:40N 34°34' E 135°23'0 0.0
2017-Aug-25 11:28N 34°34' E 135°23'0 0.0
2017-Aug-25 10:58N 34°34' E 135°23'0 0.0
2017-Aug-25 10:22N 34°34' E 135°23'0 0.0
2017-Aug-25 09:52N 34°34' E 135°23'0 0.0
2017-Aug-25 09:28N 34°34' E 135°23'0 0.0
2017-Aug-25 08:52N 34°34' E 135°23'0 0.0
2017-Aug-25 08:28N 34°34' E 135°23'0 0.0
2017-Aug-25 07:52N 34°34' E 135°23'0 0.0
2017-Aug-25 07:28N 34°34' E 135°23'0 0.0
2017-Aug-25 06:46N 34°34' E 135°23'0 0.0
2017-Aug-25 06:28N 34°34' E 135°23'0 0.0
2017-Aug-25 05:58N 34°34' E 135°23'0 0.0
2017-Aug-25 05:28N 34°34' E 135°23'0 0.0
2017-Aug-25 03:40N 34°34' E 135°23'0 0.0
2017-Aug-25 02:40N 34°34' E 135°23'0 0.0
2017-Aug-25 02:28N 34°34' E 135°23'0 0.0
2017-Aug-25 01:54N 34°34' E 135°23'0 0.0
2017-Aug-25 01:29N 34°34' E 135°23'0 0.0
2017-Aug-25 01:00N 34°34' E 135°23'0 0.0
2017-Aug-25 00:28N 34°34' E 135°23'0 0.0
2017-Aug-25 00:00N 34°34' E 135°23'0 0.0
2017-Aug-24 23:30N 34°34' E 135°23'0 0.0
2017-Aug-24 23:00N 34°34' E 135°23'0 0.0
2017-Aug-24 22:30N 34°34' E 135°23'0 0.0
2017-Aug-24 22:00N 34°34' E 135°23'2 4.4
2017-Aug-24 21:30N 34°34' E 135°20'611.3
2017-Aug-24 21:00N 34°30' E 135°16'611.7
2017-Aug-24 20:30N 34°26' E 135°10'611.5
2017-Aug-24 19:57N 34°22' E 135°04'510.9
2017-Aug-24 19:29N 34°18' E 135°00'5 9.5
2017-Aug-24 19:00N 34°13' E 134°59'510.9
2017-Aug-24 18:30N 34°08' E 134°59'  
2017-Aug-18 12:22N 34°08' E 134°57'1411.2
2017-Aug-18 11:07N 34°22' E 135°01'110.1
2017-Aug-18 10:59N 34°23' E 135°02'510.6
2017-Aug-18 10:30N 34°26' E 135°07'610.8
2017-Aug-18 09:59N 34°29' E 135°13'510.9
2017-Aug-18 09:30N 34°31' E 135°18'510.2
2017-Aug-18 09:00N 34°33' E 135°24'1 2.9
2017-Aug-18 08:30N 34°33' E 135°26'0 0.0
2017-Aug-18 07:48N 34°33' E 135°26'0 0.0
2017-Aug-18 07:30N 34°33' E 135°26'0 0.0
2017-Aug-18 06:40N 34°33' E 135°26'0 0.0
2017-Aug-18 06:18N 34°33' E 135°26'0 0.0
2017-Aug-18 03:44N 34°33' E 135°26'0 0.0
2017-Aug-18 03:30N 34°33' E 135°26'0 0.0
2017-Aug-18 03:00N 34°33' E 135°26'0 0.0
2017-Aug-18 02:30N 34°33' E 135°26'0 0.0
2017-Aug-18 01:57N 34°33' E 135°26'0 0.0
2017-Aug-18 01:30N 34°33' E 135°26'0 0.5
2017-Aug-18 00:57N 34°33' E 135°25'3 6.9
2017-Aug-18 00:27N 34°33' E 135°21'511.4
2017-Aug-18 00:00N 34°31' E 135°15'612.0
2017-Aug-17 23:29N 34°27' E 135°10'611.8
2017-Aug-17 23:00N 34°23' E 135°05'711.8
2017-Aug-17 22:23N 34°17' E 134°60'411.7
2017-Aug-17 22:00N 34°13' E 135°00'612.2
2017-Aug-17 21:30N 34°07' E 135°00'  
Track history (hours):
 
Tides and Currents Weather Stations Pressure Air Temp Water Temp Dewpoint Dewpoint Depression Visibility Wind Speed Wind Dir Waves Ship Positions

Senryumaru

Last reported at 2017-Aug-26 11:34 UTC. Time now 2017-Sep-21 03:05 UTC.
Position N 34°06' E 134°55'.
Warning: this ship's position is 25 days out of date.

Length 62 m; draft 4 m.

Type: Tanker. MMSI: 431401993.

Date/timePositionNaut miles runAvg speedWind from/ knotsBaromVisibWave heightAir tempDewpointWater temp
2017-Aug-26 11:34N 34°06' E 134°55'211.4
2017-Aug-26 11:23N 34°08' E 134°56'512.0
2017-Aug-26 11:00N 34°12' E 134°57'1111.8
2017-Aug-26 10:07N 34°22' E 135°01'111.6
2017-Aug-26 10:00N 34°23' E 135°02'611.9
2017-Aug-26 09:28N 34°26' E 135°09'612.0
2017-Aug-26 09:01N 34°29' E 135°14'611.9
2017-Aug-26 08:31N 34°33' E 135°20'4 0.5
2017-Aug-26 00:12N 34°33' E 135°25'1 5.8
2017-Aug-26 00:00N 34°33' E 135°24'1 0.5
2017-Aug-25 21:58N 34°34' E 135°23'0 0.1
2017-Aug-25 21:28N 34°34' E 135°23'0 0.0
2017-Aug-25 20:58N 34°34' E 135°23'0 0.0
2017-Aug-25 20:28N 34°34' E 135°23'0 0.0
2017-Aug-25 19:58N 34°34' E 135°23'0 0.0
2017-Aug-25 19:10N 34°34' E 135°23'0 0.0
2017-Aug-25 18:58N 34°34' E 135°23'0 0.0
2017-Aug-25 18:28N 34°34' E 135°23'0 0.0
2017-Aug-25 17:58N 34°34' E 135°23'0 0.0
2017-Aug-25 17:28N 34°34' E 135°23'0 0.0
2017-Aug-25 16:52N 34°34' E 135°23'0 0.0
2017-Aug-25 16:28N 34°34' E 135°23'0 0.0
2017-Aug-25 15:58N 34°34' E 135°23'0 0.0
2017-Aug-25 15:28N 34°34' E 135°23'0 0.0
2017-Aug-25 14:52N 34°34' E 135°23'0 0.0
2017-Aug-25 14:28N 34°34' E 135°23'0 0.0
2017-Aug-25 13:22N 34°34' E 135°23'0 0.0
2017-Aug-25 12:58N 34°34' E 135°23'0 0.0
2017-Aug-25 12:28N 34°34' E 135°23'0 0.0
2017-Aug-25 11:40N 34°34' E 135°23'0 0.0
2017-Aug-25 11:28N 34°34' E 135°23'0 0.0
2017-Aug-25 10:58N 34°34' E 135°23'0 0.0
2017-Aug-25 10:22N 34°34' E 135°23'0 0.0
2017-Aug-25 09:52N 34°34' E 135°23'0 0.0
2017-Aug-25 09:28N 34°34' E 135°23'0 0.0
2017-Aug-25 08:52N 34°34' E 135°23'0 0.0
2017-Aug-25 08:28N 34°34' E 135°23'0 0.0
2017-Aug-25 07:52N 34°34' E 135°23'0 0.0
2017-Aug-25 07:28N 34°34' E 135°23'0 0.0
2017-Aug-25 06:46N 34°34' E 135°23'0 0.0
2017-Aug-25 06:28N 34°34' E 135°23'0 0.0
2017-Aug-25 05:58N 34°34' E 135°23'0 0.0
2017-Aug-25 05:28N 34°34' E 135°23'0 0.0
2017-Aug-25 03:40N 34°34' E 135°23'0 0.0
2017-Aug-25 02:40N 34°34' E 135°23'0 0.0
2017-Aug-25 02:28N 34°34' E 135°23'0 0.0
2017-Aug-25 01:54N 34°34' E 135°23'0 0.0
2017-Aug-25 01:29N 34°34' E 135°23'0 0.0
2017-Aug-25 01:00N 34°34' E 135°23'0 0.0
2017-Aug-25 00:28N 34°34' E 135°23'0 0.0
2017-Aug-25 00:00N 34°34' E 135°23'0 0.0
2017-Aug-24 23:30N 34°34' E 135°23'0 0.0
2017-Aug-24 23:00N 34°34' E 135°23'0 0.0
2017-Aug-24 22:30N 34°34' E 135°23'0 0.0
2017-Aug-24 22:00N 34°34' E 135°23'2 4.4
2017-Aug-24 21:30N 34°34' E 135°20'611.3
2017-Aug-24 21:00N 34°30' E 135°16'611.7
2017-Aug-24 20:30N 34°26' E 135°10'611.5
2017-Aug-24 19:57N 34°22' E 135°04'510.9
2017-Aug-24 19:29N 34°18' E 135°00'5 9.5
2017-Aug-24 19:00N 34°13' E 134°59'510.9
2017-Aug-24 18:30N 34°08' E 134°59'  
2017-Aug-18 12:22N 34°08' E 134°57'1411.2
2017-Aug-18 11:07N 34°22' E 135°01'110.1
2017-Aug-18 10:59N 34°23' E 135°02'510.6
2017-Aug-18 10:30N 34°26' E 135°07'610.8
2017-Aug-18 09:59N 34°29' E 135°13'510.9
2017-Aug-18 09:30N 34°31' E 135°18'510.2
2017-Aug-18 09:00N 34°33' E 135°24'1 2.9
2017-Aug-18 08:30N 34°33' E 135°26'0 0.0
2017-Aug-18 07:48N 34°33' E 135°26'0 0.0
2017-Aug-18 07:30N 34°33' E 135°26'0 0.0
2017-Aug-18 06:40N 34°33' E 135°26'0 0.0
2017-Aug-18 06:18N 34°33' E 135°26'0 0.0
2017-Aug-18 03:44N 34°33' E 135°26'0 0.0
2017-Aug-18 03:30N 34°33' E 135°26'0 0.0
2017-Aug-18 03:00N 34°33' E 135°26'0 0.0
2017-Aug-18 02:30N 34°33' E 135°26'0 0.0
2017-Aug-18 01:57N 34°33' E 135°26'0 0.0
2017-Aug-18 01:30N 34°33' E 135°26'0 0.5
2017-Aug-18 00:57N 34°33' E 135°25'3 6.9
2017-Aug-18 00:27N 34°33' E 135°21'511.4
2017-Aug-18 00:00N 34°31' E 135°15'612.0
2017-Aug-17 23:29N 34°27' E 135°10'611.8
2017-Aug-17 23:00N 34°23' E 135°05'711.8
2017-Aug-17 22:23N 34°17' E 134°60'411.7
2017-Aug-17 22:00N 34°13' E 135°00'612.2
2017-Aug-17 21:30N 34°07' E 135°00'  

Dump ship's entire track history